Saxaren — SKHW — position and weather

sailwx.info

Track history (hours):
 
Tides and Currents Weather Stations Pressure Air Temp Water Temp Dewpoint Dewpoint Depression Visibility Wind Speed Wind Dir Waves Ship Positions

Saxaren

Last reported at 2014-Oct-26 06:33 UTC. Time now 2014-Oct-26 06:57 UTC.
Position N 59°20' E 018°04'.

Length 38 m; draft 1.8 m.

Type: Passenger vessel. MMSI: 265512110.

Date/timePositionNaut miles runAvg speedWind from/ knotsBaromVisibWave heightAir tempDewpointWater temp
2014-Oct-26 06:33N 59°20' E 018°04'0 0.0
2014-Oct-26 05:32N 59°20' E 018°04'0 0.0
2014-Oct-26 04:32N 59°20' E 018°05'0 0.0
2014-Oct-26 03:33N 59°20' E 018°05'0 0.0
2014-Oct-26 02:33N 59°20' E 018°04'0 0.0
2014-Oct-26 01:32N 59°20' E 018°04'0 0.0
2014-Oct-26 00:32N 59°20' E 018°05'0 0.0
2014-Oct-25 23:32N 59°20' E 018°04'0 0.0
2014-Oct-25 22:32N 59°20' E 018°05'0 0.0
2014-Oct-25 21:33N 59°20' E 018°04'0 0.0
2014-Oct-25 20:33N 59°20' E 018°04'0 0.0
2014-Oct-25 19:33N 59°20' E 018°04'0 0.0
2014-Oct-25 18:33N 59°20' E 018°04'0 0.0
2014-Oct-25 17:32N 59°20' E 018°04'0 0.0
2014-Oct-25 16:32N 59°20' E 018°05'8 0.9
2014-Oct-25 07:15N 59°23' E 018°19'811.7
2014-Oct-25 06:33N 59°19' E 018°05'0 0.4
2014-Oct-25 05:32N 59°20' E 018°05'0 0.0
2014-Oct-25 04:32N 59°20' E 018°05'0 0.0
2014-Oct-25 03:33N 59°20' E 018°04'0 0.0
2014-Oct-25 02:33N 59°20' E 018°05'0 0.0
2014-Oct-25 01:33N 59°20' E 018°05'0 0.0
2014-Oct-25 00:33N 59°20' E 018°05'0 0.0
2014-Oct-24 23:33N 59°20' E 018°05'0 0.0
2014-Oct-24 22:33N 59°20' E 018°04'0 0.0
2014-Oct-24 21:33N 59°20' E 018°05'7 6.8
2014-Oct-24 20:33N 59°22' E 018°17'1 0.1
2014-Oct-24 16:17N 59°22' E 018°18'710.3
2014-Oct-24 15:33N 59°19' E 018°05'0 0.4
2014-Oct-24 14:33N 59°20' E 018°05'0 0.0
2014-Oct-24 13:32N 59°20' E 018°05'0 0.0
2014-Oct-24 12:32N 59°20' E 018°05'0 0.0
2014-Oct-24 11:33N 59°20' E 018°05'0 0.0
2014-Oct-24 10:33N 59°20' E 018°05'0 0.0
2014-Oct-24 09:33N 59°20' E 018°05'0 0.0
2014-Oct-24 08:32N 59°20' E 018°05'0 0.0
2014-Oct-24 07:32N 59°20' E 018°05'0 0.0
2014-Oct-24 06:31N 59°20' E 018°05'0 0.0
2014-Oct-24 05:32N 59°20' E 018°05'0 0.0
2014-Oct-24 04:32N 59°20' E 018°05'0 0.0
2014-Oct-24 03:33N 59°20' E 018°05'0 0.0
2014-Oct-24 02:33N 59°20' E 018°05'0 0.0
2014-Oct-24 01:32N 59°20' E 018°05'0 0.0
2014-Oct-24 00:32N 59°20' E 018°05'0 0.0
2014-Oct-23 23:32N 59°20' E 018°05'0 0.0
2014-Oct-23 22:32N 59°20' E 018°05'0 0.0
2014-Oct-23 21:32N 59°20' E 018°05'0 0.0
2014-Oct-23 20:33N 59°20' E 018°05'0 0.0
2014-Oct-23 19:33N 59°20' E 018°05'0 0.0
2014-Oct-23 18:33N 59°20' E 018°05'0 0.0
2014-Oct-23 17:33N 59°20' E 018°05'0 0.0
2014-Oct-23 16:33N 59°20' E 018°05'0 0.0
2014-Oct-23 15:32N 59°20' E 018°05'0 0.0
2014-Oct-23 14:33N 59°20' E 018°05'0 0.0
2014-Oct-23 13:33N 59°20' E 018°05'0 0.0
2014-Oct-23 12:33N 59°20' E 018°05'0 0.0
2014-Oct-23 11:33N 59°20' E 018°05'0 0.0
2014-Oct-23 10:33N 59°20' E 018°05'0 0.0
2014-Oct-23 09:33N 59°20' E 018°05'0 0.0
2014-Oct-23 08:33N 59°20' E 018°05'0 0.0
2014-Oct-23 07:33N 59°20' E 018°05'0 0.0
2014-Oct-23 06:31N 59°20' E 018°05'0 0.0
2014-Oct-23 05:31N 59°20' E 018°05'0 0.0
2014-Oct-23 04:31N 59°20' E 018°05'0 0.0
2014-Oct-23 03:31N 59°20' E 018°05'0 0.0
2014-Oct-23 02:33N 59°20' E 018°05'0 0.0
2014-Oct-23 01:32N 59°20' E 018°05'0 0.0
2014-Oct-23 00:32N 59°20' E 018°05'0 0.0
2014-Oct-22 23:33N 59°20' E 018°05'0 0.0
2014-Oct-22 22:33N 59°20' E 018°05'0 0.0
2014-Oct-22 21:33N 59°20' E 018°05'0 0.0
2014-Oct-22 20:33N 59°20' E 018°05'0 0.0
2014-Oct-22 19:32N 59°20' E 018°05'0 0.0
2014-Oct-22 18:32N 59°20' E 018°05'0 0.0
2014-Oct-22 17:32N 59°20' E 018°05'0 0.0
2014-Oct-22 16:33N 59°20' E 018°05'0 0.0
2014-Oct-22 15:33N 59°20' E 018°05'0 0.0
2014-Oct-22 14:32N 59°20' E 018°05'0 0.0
2014-Oct-22 13:32N 59°20' E 018°05'0 0.0
2014-Oct-22 12:32N 59°20' E 018°05'0 0.0
2014-Oct-22 11:33N 59°20' E 018°05'0 0.0
2014-Oct-22 10:33N 59°20' E 018°05'0 0.0
2014-Oct-22 09:33N 59°20' E 018°05'0 0.0
2014-Oct-22 08:33N 59°20' E 018°05'0 0.0
2014-Oct-22 07:32N 59°20' E 018°05'0 0.0
2014-Oct-22 06:32N 59°20' E 018°05'0 0.0
2014-Oct-22 05:33N 59°20' E 018°05'0 0.0
2014-Oct-22 04:33N 59°20' E 018°05'0 0.0
2014-Oct-22 03:33N 59°20' E 018°05'0 0.0
2014-Oct-22 02:33N 59°20' E 018°05'0 0.0
2014-Oct-22 01:32N 59°20' E 018°05'0 0.0
2014-Oct-22 00:33N 59°20' E 018°05'0 0.0
2014-Oct-21 23:33N 59°20' E 018°05'0 0.0
2014-Oct-21 22:33N 59°20' E 018°05'0 0.0
2014-Oct-21 21:33N 59°20' E 018°05'0 0.0
2014-Oct-21 20:33N 59°20' E 018°05'0 0.0
2014-Oct-21 19:33N 59°20' E 018°05'0 0.0
2014-Oct-21 18:33N 59°20' E 018°05'0 0.0
2014-Oct-21 17:33N 59°20' E 018°05'0 0.0
2014-Oct-21 16:32N 59°20' E 018°05'0 0.0
2014-Oct-21 15:32N 59°20' E 018°05'0 0.0
2014-Oct-21 14:34N 59°20' E 018°05'0 0.0
2014-Oct-21 13:33N 59°20' E 018°05'0 0.0
2014-Oct-21 12:33N 59°20' E 018°05'0 0.0
2014-Oct-21 11:33N 59°20' E 018°05'0 0.0
2014-Oct-21 10:33N 59°20' E 018°05'0 0.0
2014-Oct-21 09:32N 59°20' E 018°05'0 0.0
2014-Oct-21 08:33N 59°20' E 018°05'0 0.0
2014-Oct-21 07:34N 59°20' E 018°05'0 0.0
2014-Oct-21 06:33N 59°20' E 018°05'0 0.0
2014-Oct-21 05:33N 59°20' E 018°05'0 0.0
2014-Oct-21 04:33N 59°20' E 018°05'0 0.0
2014-Oct-21 03:32N 59°20' E 018°05'0 0.0
2014-Oct-21 02:32N 59°20' E 018°05'0 0.0
2014-Oct-21 01:33N 59°20' E 018°05'0 0.0
2014-Oct-21 00:33N 59°20' E 018°05'0 0.0
2014-Oct-20 23:33N 59°20' E 018°05'0 0.0
2014-Oct-20 22:33N 59°20' E 018°05'0 0.0
2014-Oct-20 21:33N 59°20' E 018°05'0 0.0
2014-Oct-20 20:33N 59°20' E 018°05'0 0.0
2014-Oct-20 19:33N 59°20' E 018°05'0 0.0
2014-Oct-20 18:33N 59°20' E 018°05'0 0.0
2014-Oct-20 17:33N 59°20' E 018°05'0 0.0
2014-Oct-20 16:32N 59°20' E 018°05'0 0.0
2014-Oct-20 15:32N 59°20' E 018°05'0 0.0
2014-Oct-20 14:33N 59°20' E 018°05'0 0.0
2014-Oct-20 13:33N 59°20' E 018°05'0 0.0
2014-Oct-20 12:33N 59°20' E 018°05'0 0.0
2014-Oct-20 11:33N 59°20' E 018°05'0 0.0
2014-Oct-20 10:33N 59°20' E 018°05'0 0.0
2014-Oct-20 09:32N 59°20' E 018°05'0 0.0
2014-Oct-20 08:33N 59°20' E 018°05'0 0.0
2014-Oct-20 07:33N 59°20' E 018°05'0 0.0
2014-Oct-20 06:32N 59°20' E 018°05'0 0.0
2014-Oct-20 05:32N 59°20' E 018°05'0 0.0
2014-Oct-20 04:31N 59°20' E 018°05'0 0.0
2014-Oct-20 03:33N 59°20' E 018°05'0 0.0
2014-Oct-20 02:33N 59°20' E 018°05'0 0.0
2014-Oct-20 01:33N 59°20' E 018°05'0 0.0
2014-Oct-20 00:33N 59°20' E 018°05'0 0.0
2014-Oct-19 23:32N 59°20' E 018°05'0 0.0
2014-Oct-19 22:33N 59°20' E 018°05'0 0.0
2014-Oct-19 21:33N 59°20' E 018°05'0 0.0
2014-Oct-19 20:32N 59°20' E 018°05'0 0.0
2014-Oct-19 19:33N 59°20' E 018°05'1 0.9
2014-Oct-19 18:33N 59°19' E 018°06'8 1.9
2014-Oct-19 14:22N 59°23' E 018°19'8 9.7
2014-Oct-19 13:32N 59°20' E 018°05'8 7.9
2014-Oct-19 12:33N 59°23' E 018°19'1 0.2
2014-Oct-19 07:30N 59°22' E 018°20'8 8.7
2014-Oct-19 06:32N 59°20' E 018°05'0 0.0
2014-Oct-19 05:32N 59°20' E 018°05'0 0.0
2014-Oct-19 04:32N 59°20' E 018°05'0 0.0
2014-Oct-19 03:33N 59°20' E 018°05'0 0.0
2014-Oct-19 02:33N 59°20' E 018°05'0 0.0
2014-Oct-19 01:33N 59°20' E 018°05'0 0.0
2014-Oct-19 00:33N 59°20' E 018°05'0 0.0
2014-Oct-18 23:32N 59°20' E 018°05'0 0.0
2014-Oct-18 22:32N 59°20' E 018°05'0 0.0
2014-Oct-18 21:32N 59°20' E 018°05'0 0.0
2014-Oct-18 20:32N 59°20' E 018°05'0 0.0
2014-Oct-18 19:33N 59°20' E 018°05'0 0.0
2014-Oct-18 18:33N 59°20' E 018°05'0 0.0
2014-Oct-18 17:32N 59°20' E 018°05'0 0.1
2014-Oct-18 16:33N 59°20' E 018°05'8 0.8
2014-Oct-18 07:13N 59°23' E 018°19'811.9
2014-Oct-18 06:33N 59°20' E 018°05'0 0.2
2014-Oct-18 05:32N 59°20' E 018°05'0 0.0
2014-Oct-18 04:33N 59°20' E 018°05'0 0.0
2014-Oct-18 03:33N 59°20' E 018°05'0 0.0
2014-Oct-18 02:33N 59°20' E 018°05'0 0.0
2014-Oct-18 01:33N 59°20' E 018°05'0 0.0
2014-Oct-18 00:33N 59°20' E 018°05'0 0.0
2014-Oct-17 23:32N 59°20' E 018°05'0 0.0
2014-Oct-17 22:33N 59°20' E 018°05'0 0.0
2014-Oct-17 21:33N 59°20' E 018°05'8 7.7
2014-Oct-17 20:33N 59°23' E 018°18'  
Track history (hours):
 
Tides and Currents Weather Stations Pressure Air Temp Water Temp Dewpoint Dewpoint Depression Visibility Wind Speed Wind Dir Waves Ship Positions

Saxaren

Last reported at 2014-Oct-26 06:33 UTC. Time now 2014-Oct-26 06:57 UTC.
Position N 59°20' E 018°04'.

Length 38 m; draft 1.8 m.

Type: Passenger vessel. MMSI: 265512110.

Date/timePositionNaut miles runAvg speedWind from/ knotsBaromVisibWave heightAir tempDewpointWater temp
2014-Oct-26 06:33N 59°20' E 018°04'0 0.0
2014-Oct-26 05:32N 59°20' E 018°04'0 0.0
2014-Oct-26 04:32N 59°20' E 018°05'0 0.0
2014-Oct-26 03:33N 59°20' E 018°05'0 0.0
2014-Oct-26 02:33N 59°20' E 018°04'0 0.0
2014-Oct-26 01:32N 59°20' E 018°04'0 0.0
2014-Oct-26 00:32N 59°20' E 018°05'0 0.0
2014-Oct-25 23:32N 59°20' E 018°04'0 0.0
2014-Oct-25 22:32N 59°20' E 018°05'0 0.0
2014-Oct-25 21:33N 59°20' E 018°04'0 0.0
2014-Oct-25 20:33N 59°20' E 018°04'0 0.0
2014-Oct-25 19:33N 59°20' E 018°04'0 0.0
2014-Oct-25 18:33N 59°20' E 018°04'0 0.0
2014-Oct-25 17:32N 59°20' E 018°04'0 0.0
2014-Oct-25 16:32N 59°20' E 018°05'8 0.9
2014-Oct-25 07:15N 59°23' E 018°19'811.7
2014-Oct-25 06:33N 59°19' E 018°05'0 0.4
2014-Oct-25 05:32N 59°20' E 018°05'0 0.0
2014-Oct-25 04:32N 59°20' E 018°05'0 0.0
2014-Oct-25 03:33N 59°20' E 018°04'0 0.0
2014-Oct-25 02:33N 59°20' E 018°05'0 0.0
2014-Oct-25 01:33N 59°20' E 018°05'0 0.0
2014-Oct-25 00:33N 59°20' E 018°05'0 0.0
2014-Oct-24 23:33N 59°20' E 018°05'0 0.0
2014-Oct-24 22:33N 59°20' E 018°04'0 0.0
2014-Oct-24 21:33N 59°20' E 018°05'7 6.8
2014-Oct-24 20:33N 59°22' E 018°17'1 0.1
2014-Oct-24 16:17N 59°22' E 018°18'710.3
2014-Oct-24 15:33N 59°19' E 018°05'0 0.4
2014-Oct-24 14:33N 59°20' E 018°05'0 0.0
2014-Oct-24 13:32N 59°20' E 018°05'0 0.0
2014-Oct-24 12:32N 59°20' E 018°05'0 0.0
2014-Oct-24 11:33N 59°20' E 018°05'0 0.0
2014-Oct-24 10:33N 59°20' E 018°05'0 0.0
2014-Oct-24 09:33N 59°20' E 018°05'0 0.0
2014-Oct-24 08:32N 59°20' E 018°05'0 0.0
2014-Oct-24 07:32N 59°20' E 018°05'0 0.0
2014-Oct-24 06:31N 59°20' E 018°05'0 0.0
2014-Oct-24 05:32N 59°20' E 018°05'0 0.0
2014-Oct-24 04:32N 59°20' E 018°05'0 0.0
2014-Oct-24 03:33N 59°20' E 018°05'0 0.0
2014-Oct-24 02:33N 59°20' E 018°05'0 0.0
2014-Oct-24 01:32N 59°20' E 018°05'0 0.0
2014-Oct-24 00:32N 59°20' E 018°05'0 0.0
2014-Oct-23 23:32N 59°20' E 018°05'0 0.0
2014-Oct-23 22:32N 59°20' E 018°05'0 0.0
2014-Oct-23 21:32N 59°20' E 018°05'0 0.0
2014-Oct-23 20:33N 59°20' E 018°05'0 0.0
2014-Oct-23 19:33N 59°20' E 018°05'0 0.0
2014-Oct-23 18:33N 59°20' E 018°05'0 0.0
2014-Oct-23 17:33N 59°20' E 018°05'0 0.0
2014-Oct-23 16:33N 59°20' E 018°05'0 0.0
2014-Oct-23 15:32N 59°20' E 018°05'0 0.0
2014-Oct-23 14:33N 59°20' E 018°05'0 0.0
2014-Oct-23 13:33N 59°20' E 018°05'0 0.0
2014-Oct-23 12:33N 59°20' E 018°05'0 0.0
2014-Oct-23 11:33N 59°20' E 018°05'0 0.0
2014-Oct-23 10:33N 59°20' E 018°05'0 0.0
2014-Oct-23 09:33N 59°20' E 018°05'0 0.0
2014-Oct-23 08:33N 59°20' E 018°05'0 0.0
2014-Oct-23 07:33N 59°20' E 018°05'0 0.0
2014-Oct-23 06:31N 59°20' E 018°05'0 0.0
2014-Oct-23 05:31N 59°20' E 018°05'0 0.0
2014-Oct-23 04:31N 59°20' E 018°05'0 0.0
2014-Oct-23 03:31N 59°20' E 018°05'0 0.0
2014-Oct-23 02:33N 59°20' E 018°05'0 0.0
2014-Oct-23 01:32N 59°20' E 018°05'0 0.0
2014-Oct-23 00:32N 59°20' E 018°05'0 0.0
2014-Oct-22 23:33N 59°20' E 018°05'0 0.0
2014-Oct-22 22:33N 59°20' E 018°05'0 0.0
2014-Oct-22 21:33N 59°20' E 018°05'0 0.0
2014-Oct-22 20:33N 59°20' E 018°05'0 0.0
2014-Oct-22 19:32N 59°20' E 018°05'0 0.0
2014-Oct-22 18:32N 59°20' E 018°05'0 0.0
2014-Oct-22 17:32N 59°20' E 018°05'0 0.0
2014-Oct-22 16:33N 59°20' E 018°05'0 0.0
2014-Oct-22 15:33N 59°20' E 018°05'0 0.0
2014-Oct-22 14:32N 59°20' E 018°05'0 0.0
2014-Oct-22 13:32N 59°20' E 018°05'0 0.0
2014-Oct-22 12:32N 59°20' E 018°05'0 0.0
2014-Oct-22 11:33N 59°20' E 018°05'0 0.0
2014-Oct-22 10:33N 59°20' E 018°05'0 0.0
2014-Oct-22 09:33N 59°20' E 018°05'0 0.0
2014-Oct-22 08:33N 59°20' E 018°05'0 0.0
2014-Oct-22 07:32N 59°20' E 018°05'0 0.0
2014-Oct-22 06:32N 59°20' E 018°05'0 0.0
2014-Oct-22 05:33N 59°20' E 018°05'0 0.0
2014-Oct-22 04:33N 59°20' E 018°05'0 0.0
2014-Oct-22 03:33N 59°20' E 018°05'0 0.0
2014-Oct-22 02:33N 59°20' E 018°05'0 0.0
2014-Oct-22 01:32N 59°20' E 018°05'0 0.0
2014-Oct-22 00:33N 59°20' E 018°05'0 0.0
2014-Oct-21 23:33N 59°20' E 018°05'0 0.0
2014-Oct-21 22:33N 59°20' E 018°05'0 0.0
2014-Oct-21 21:33N 59°20' E 018°05'0 0.0
2014-Oct-21 20:33N 59°20' E 018°05'0 0.0
2014-Oct-21 19:33N 59°20' E 018°05'0 0.0
2014-Oct-21 18:33N 59°20' E 018°05'0 0.0
2014-Oct-21 17:33N 59°20' E 018°05'0 0.0
2014-Oct-21 16:32N 59°20' E 018°05'0 0.0
2014-Oct-21 15:32N 59°20' E 018°05'0 0.0
2014-Oct-21 14:34N 59°20' E 018°05'0 0.0
2014-Oct-21 13:33N 59°20' E 018°05'0 0.0
2014-Oct-21 12:33N 59°20' E 018°05'0 0.0
2014-Oct-21 11:33N 59°20' E 018°05'0 0.0
2014-Oct-21 10:33N 59°20' E 018°05'0 0.0
2014-Oct-21 09:32N 59°20' E 018°05'0 0.0
2014-Oct-21 08:33N 59°20' E 018°05'0 0.0
2014-Oct-21 07:34N 59°20' E 018°05'0 0.0
2014-Oct-21 06:33N 59°20' E 018°05'0 0.0
2014-Oct-21 05:33N 59°20' E 018°05'0 0.0
2014-Oct-21 04:33N 59°20' E 018°05'0 0.0
2014-Oct-21 03:32N 59°20' E 018°05'0 0.0
2014-Oct-21 02:32N 59°20' E 018°05'0 0.0
2014-Oct-21 01:33N 59°20' E 018°05'0 0.0
2014-Oct-21 00:33N 59°20' E 018°05'0 0.0
2014-Oct-20 23:33N 59°20' E 018°05'0 0.0
2014-Oct-20 22:33N 59°20' E 018°05'0 0.0
2014-Oct-20 21:33N 59°20' E 018°05'0 0.0
2014-Oct-20 20:33N 59°20' E 018°05'0 0.0
2014-Oct-20 19:33N 59°20' E 018°05'0 0.0
2014-Oct-20 18:33N 59°20' E 018°05'0 0.0
2014-Oct-20 17:33N 59°20' E 018°05'0 0.0
2014-Oct-20 16:32N 59°20' E 018°05'0 0.0
2014-Oct-20 15:32N 59°20' E 018°05'0 0.0
2014-Oct-20 14:33N 59°20' E 018°05'0 0.0
2014-Oct-20 13:33N 59°20' E 018°05'0 0.0
2014-Oct-20 12:33N 59°20' E 018°05'0 0.0
2014-Oct-20 11:33N 59°20' E 018°05'0 0.0
2014-Oct-20 10:33N 59°20' E 018°05'0 0.0
2014-Oct-20 09:32N 59°20' E 018°05'0 0.0
2014-Oct-20 08:33N 59°20' E 018°05'0 0.0
2014-Oct-20 07:33N 59°20' E 018°05'0 0.0
2014-Oct-20 06:32N 59°20' E 018°05'0 0.0
2014-Oct-20 05:32N 59°20' E 018°05'0 0.0
2014-Oct-20 04:31N 59°20' E 018°05'0 0.0
2014-Oct-20 03:33N 59°20' E 018°05'0 0.0
2014-Oct-20 02:33N 59°20' E 018°05'0 0.0
2014-Oct-20 01:33N 59°20' E 018°05'0 0.0
2014-Oct-20 00:33N 59°20' E 018°05'0 0.0
2014-Oct-19 23:32N 59°20' E 018°05'0 0.0
2014-Oct-19 22:33N 59°20' E 018°05'0 0.0
2014-Oct-19 21:33N 59°20' E 018°05'0 0.0
2014-Oct-19 20:32N 59°20' E 018°05'0 0.0
2014-Oct-19 19:33N 59°20' E 018°05'1 0.9
2014-Oct-19 18:33N 59°19' E 018°06'8 1.9
2014-Oct-19 14:22N 59°23' E 018°19'8 9.7
2014-Oct-19 13:32N 59°20' E 018°05'8 7.9
2014-Oct-19 12:33N 59°23' E 018°19'1 0.2
2014-Oct-19 07:30N 59°22' E 018°20'8 8.7
2014-Oct-19 06:32N 59°20' E 018°05'0 0.0
2014-Oct-19 05:32N 59°20' E 018°05'0 0.0
2014-Oct-19 04:32N 59°20' E 018°05'0 0.0
2014-Oct-19 03:33N 59°20' E 018°05'0 0.0
2014-Oct-19 02:33N 59°20' E 018°05'0 0.0
2014-Oct-19 01:33N 59°20' E 018°05'0 0.0
2014-Oct-19 00:33N 59°20' E 018°05'0 0.0
2014-Oct-18 23:32N 59°20' E 018°05'0 0.0
2014-Oct-18 22:32N 59°20' E 018°05'0 0.0
2014-Oct-18 21:32N 59°20' E 018°05'0 0.0
2014-Oct-18 20:32N 59°20' E 018°05'0 0.0
2014-Oct-18 19:33N 59°20' E 018°05'0 0.0
2014-Oct-18 18:33N 59°20' E 018°05'0 0.0
2014-Oct-18 17:32N 59°20' E 018°05'0 0.1
2014-Oct-18 16:33N 59°20' E 018°05'8 0.8
2014-Oct-18 07:13N 59°23' E 018°19'811.9
2014-Oct-18 06:33N 59°20' E 018°05'0 0.2
2014-Oct-18 05:32N 59°20' E 018°05'0 0.0
2014-Oct-18 04:33N 59°20' E 018°05'0 0.0
2014-Oct-18 03:33N 59°20' E 018°05'0 0.0
2014-Oct-18 02:33N 59°20' E 018°05'0 0.0
2014-Oct-18 01:33N 59°20' E 018°05'0 0.0
2014-Oct-18 00:33N 59°20' E 018°05'0 0.0
2014-Oct-17 23:32N 59°20' E 018°05'0 0.0
2014-Oct-17 22:33N 59°20' E 018°05'0 0.0
2014-Oct-17 21:33N 59°20' E 018°05'8 7.7
2014-Oct-17 20:33N 59°23' E 018°18'  

Dump ship's entire track history